createdAt,value
2023-02-12T00:04:17.928Z,102200.41
2023-02-12T00:09:26.797Z,102206.34
2023-02-12T00:14:38.840Z,102201.22
2023-02-12T00:19:49.355Z,102203.91
2023-02-12T00:24:55.449Z,102198.72
2023-02-12T00:30:00.188Z,102190.13
2023-02-12T00:35:06.179Z,102189.19
2023-02-12T00:40:13.698Z,102196.09
2023-02-12T00:45:19.596Z,102205.53
2023-02-12T00:50:24.489Z,102202.16
2023-02-12T00:55:35.634Z,102216.81
2023-02-12T01:00:41.532Z,102216.88
2023-02-12T01:05:45.485Z,102225.50
2023-02-12T01:10:57.975Z,102224.44
2023-02-12T01:16:11.269Z,102220.41
2023-02-12T01:21:21.905Z,102226.47
2023-02-12T01:26:28.070Z,102230.72
2023-02-12T01:31:34.895Z,102225.50
2023-02-12T01:36:42.852Z,102229.81
2023-02-12T01:41:48.728Z,102228.09
2023-02-12T01:46:58.506Z,102224.50
2023-02-12T01:52:09.585Z,102217.44
2023-02-12T01:57:17.324Z,102226.91
2023-02-12T02:02:23.034Z,102223.38
2023-02-12T02:07:27.994Z,102223.38
2023-02-12T02:12:56.698Z,102228.44
2023-02-12T02:18:10.750Z,102220.72
2023-02-12T02:23:49.015Z,102210.19
2023-02-12T02:29:22.277Z,102221.50
2023-02-12T02:34:40.572Z,102217.25
2023-02-12T02:39:54.905Z,102215.56
2023-02-12T02:45:15.852Z,102209.44
2023-02-12T02:50:28.482Z,102210.34
2023-02-12T02:55:47.015Z,102216.47
2023-02-12T03:01:00.068Z,102211.25
2023-02-12T03:06:10.887Z,102225.13
2023-02-12T03:11:23.152Z,102224.25
2023-02-12T03:16:32.109Z,102226.03
2023-02-12T03:21:45.958Z,102236.38
2023-02-12T03:26:54.293Z,102240.56
2023-02-12T03:32:08.666Z,102243.91
2023-02-12T03:37:20.706Z,102247.34
2023-02-12T03:42:39.450Z,102250.19
2023-02-12T03:47:49.616Z,102264.75
2023-02-12T03:52:57.229Z,102263.84
2023-02-12T03:58:05.147Z,102264.63
2023-02-12T04:03:09.690Z,102274.22
2023-02-12T04:08:19.279Z,102271.53
2023-02-12T04:13:28.227Z,102277.59
2023-02-12T04:18:43.572Z,102282.88
2023-02-12T04:24:12.705Z,102295.88
2023-02-12T04:29:26.018Z,102304.53
2023-02-12T04:34:39.303Z,102299.31
2023-02-12T04:39:52.783Z,102300.06
2023-02-12T04:45:00.979Z,102306.16
2023-02-12T04:50:06.357Z,102317.41
2023-02-12T04:55:13.841Z,102311.44
2023-02-12T05:00:19.587Z,102309.69
2023-02-12T05:05:24.160Z,102317.41
2023-02-12T05:10:31.711Z,102310.47
2023-02-12T05:15:35.746Z,102313.91
2023-02-12T05:20:40.129Z,102306.97
2023-02-12T05:25:45.653Z,102301.78
2023-02-12T05:30:50.789Z,102308.75
2023-02-12T05:35:56.239Z,102324.41
2023-02-12T05:41:07.036Z,102317.38
2023-02-12T05:46:14.733Z,102307.84
2023-02-12T05:51:22.984Z,102320.88
2023-02-12T05:56:33.468Z,102328.72
2023-02-12T06:01:40.346Z,102328.66
2023-02-12T06:06:45.260Z,102330.41
2023-02-12T06:11:51.522Z,102327.84
2023-02-12T06:16:56.899Z,102338.22
2023-02-12T06:22:01.236Z,102344.38
2023-02-12T06:27:07.701Z,102353.84
2023-02-12T06:32:13.997Z,102353.84
2023-02-12T06:37:18.023Z,102361.66
2023-02-12T06:42:27.502Z,102366.00
2023-02-12T06:47:33.942Z,102372.91
2023-02-12T06:52:38.346Z,102379.84
2023-02-12T06:57:44.797Z,102377.22
2023-02-12T07:02:54.522Z,102386.75
2023-02-12T07:08:04.830Z,102380.69
2023-02-12T07:13:21.200Z,102391.91
2023-02-12T07:18:27.615Z,102405.72
2023-02-12T07:23:31.053Z,102407.28
2023-02-12T07:28:43.548Z,102407.91
2023-02-12T07:33:48.894Z,102408.72
2023-02-12T07:38:55.716Z,102416.56
2023-02-12T07:44:08.290Z,102425.16
2023-02-12T07:49:17.542Z,102433.91
2023-02-12T07:54:28.842Z,102428.75
2023-02-12T07:59:42.893Z,102433.81
2023-02-12T08:04:47.848Z,102445.81
2023-02-12T08:09:59.813Z,102446.72
2023-02-12T08:15:08.897Z,102444.84
2023-02-12T08:20:20.788Z,102446.41
2023-02-12T08:25:34.983Z,102444.56
2023-02-12T08:30:44.438Z,102449.78
2023-02-12T08:35:48.471Z,102454.03
2023-02-12T08:40:53.447Z,102468.66
2023-02-12T08:46:03.343Z,102461.34
2023-02-12T08:51:11.133Z,102461.16
2023-02-12T08:56:22.312Z,102459.91
2023-02-12T09:01:36.588Z,102464.63
2023-02-12T09:06:50.828Z,102470.44
2023-02-12T09:12:00.204Z,102476.94
2023-02-12T09:17:37.981Z,102475.50
2023-02-12T09:22:46.266Z,102487.34
2023-02-12T09:27:54.464Z,102491.44
2023-02-12T09:33:05.189Z,102494.44
2023-02-12T09:38:19.716Z,102498.59
2023-02-12T09:43:33.339Z,102506.38
2023-02-12T09:48:59.849Z,102513.91
2023-02-12T09:54:10.518Z,102510.44
2023-02-12T09:59:23.159Z,102515.59
2023-02-12T10:05:02.186Z,102523.41
2023-02-12T10:10:25.439Z,102521.63
2023-02-12T10:15:39.708Z,102519.84
2023-02-12T10:21:15.681Z,102520.13
2023-02-12T10:26:26.514Z,102525.34
2023-02-12T10:31:59.087Z,102525.91
2023-02-12T10:37:25.151Z,102516.03
2023-02-12T10:42:43.512Z,102519.81
2023-02-12T10:48:04.436Z,102515.13
2023-02-12T10:53:28.269Z,102510.94
2023-02-12T10:58:33.779Z,102512.78
2023-02-12T11:03:46.306Z,102505.13
2023-02-12T11:08:57.712Z,102503.13
2023-02-12T11:14:14.088Z,102501.53
2023-02-12T11:19:43.282Z,102497.22
2023-02-12T11:25:05.763Z,102505.38
2023-02-12T11:30:21.759Z,102495.69
2023-02-12T11:35:35.594Z,102493.97
2023-02-12T11:40:52.913Z,102493.34
2023-02-12T11:46:08.392Z,102498.97
2023-02-12T11:51:28.697Z,102488.59
2023-02-12T11:56:47.152Z,102488.34
2023-02-12T12:02:07.156Z,102478.66
2023-02-12T12:07:34.245Z,102483.03
2023-02-12T12:12:48.815Z,102493.06
2023-02-12T12:18:33.904Z,102496.91
2023-02-12T12:23:49.548Z,102490.97
2023-02-12T12:29:04.333Z,102493.44
2023-02-12T12:34:17.544Z,102493.59
2023-02-12T12:39:30.433Z,102492.53
2023-02-12T12:45:00.310Z,102477.47
2023-02-12T12:50:25.826Z,102480.25
2023-02-12T12:56:03.865Z,102479.50
2023-02-12T13:01:37.323Z,102466.63
2023-02-12T13:06:54.316Z,102483.38
2023-02-12T13:12:20.574Z,102476.72
2023-02-12T13:17:46.916Z,102469.09
2023-02-12T13:22:58.804Z,102456.88
2023-02-12T13:28:07.496Z,102467.13
2023-02-12T13:33:24.771Z,102463.25
2023-02-12T13:38:53.472Z,102468.31
2023-02-12T13:44:11.991Z,102457.56
2023-02-12T13:49:37.110Z,102450.09
2023-02-12T13:55:00.276Z,102460.63
2023-02-12T14:00:28.702Z,102457.84
2023-02-12T14:05:35.617Z,102456.16
2023-02-12T14:11:04.437Z,102463.25
2023-02-12T14:16:38.114Z,102453.47
2023-02-12T14:21:45.443Z,102459.63
2023-02-12T14:27:00.738Z,102464.72
2023-02-12T14:32:05.030Z,102461.34
2023-02-12T14:37:37.781Z,102457.84
2023-02-12T14:42:58.558Z,102452.06
2023-02-12T14:48:06.854Z,102449.03
2023-02-12T14:53:31.480Z,102453.25
2023-02-12T14:58:42.282Z,102459.50
2023-02-12T15:03:57.426Z,102459.44
2023-02-12T15:09:11.934Z,102463.81
2023-02-12T15:14:24.247Z,102466.59
2023-02-12T15:19:43.020Z,102466.81
2023-02-12T15:24:59.306Z,102467.72
2023-02-12T15:30:06.185Z,102466.97
2023-02-12T15:35:28.004Z,102475.75
2023-02-12T15:40:36.334Z,102471.50
2023-02-12T15:45:46.535Z,102474.28
2023-02-12T15:50:58.347Z,102477.19
2023-02-12T15:56:07.083Z,102478.25
2023-02-12T16:01:19.841Z,102482.88
2023-02-12T16:06:29.792Z,102481.19
2023-02-12T16:11:51.324Z,102490.88
2023-02-12T16:17:00.848Z,102484.16
2023-02-12T16:22:19.769Z,102488.63
2023-02-12T16:27:27.607Z,102483.63
2023-02-12T16:32:54.805Z,102487.38
2023-02-12T16:38:04.624Z,102499.75
2023-02-12T16:43:29.178Z,102499.75
2023-02-12T16:48:42.908Z,102510.75
2023-02-12T16:53:56.693Z,102512.50
2023-02-12T16:59:03.198Z,102508.19
2023-02-12T17:04:19.201Z,102514.34
2023-02-12T17:09:23.007Z,102518.03
2023-02-12T17:14:29.430Z,102513.63
2023-02-12T17:19:32.745Z,102518.94
2023-02-12T17:24:36.956Z,102517.31
2023-02-12T17:29:43.665Z,102523.50
2023-02-12T17:34:53.236Z,102525.50
2023-02-12T17:40:00.975Z,102520.22
2023-02-12T17:45:10.157Z,102524.53
2023-02-12T17:50:20.549Z,102528.88
2023-02-12T17:55:32.190Z,102528.06
2023-02-12T18:00:40.778Z,102520.38
2023-02-12T18:05:53.363Z,102521.19
2023-02-12T18:10:58.113Z,102527.34
2023-02-12T18:16:10.721Z,102518.53
2023-02-12T18:21:23.980Z,102515.03
2023-02-12T18:26:41.292Z,102520.38
2023-02-12T18:31:47.840Z,102510.75
2023-02-12T18:36:57.217Z,102517.94
2023-02-12T18:42:02.405Z,102515.25
2023-02-12T18:47:11.226Z,102518.72
2023-02-12T18:52:18.159Z,102520.63
2023-02-12T18:57:21.637Z,102513.56
2023-02-12T19:02:27.917Z,102522.47
2023-02-12T19:07:32.595Z,102513.84
2023-02-12T19:12:38.253Z,102517.22
2023-02-12T19:17:48.899Z,102517.22
2023-02-12T19:22:56.392Z,102522.59
2023-02-12T19:28:09.308Z,102514.00
2023-02-12T19:33:16.084Z,102526.28
2023-02-12T19:43:50.868Z,102526.19
2023-02-12T19:49:03.146Z,102514.91
2023-02-12T19:54:08.815Z,102502.91
2023-02-12T19:59:34.972Z,102511.63
2023-02-12T20:05:02.390Z,102514.25
2023-02-12T20:10:07.068Z,102522.25
2023-02-12T20:15:14.454Z,102533.47
2023-02-12T20:20:22.557Z,102526.63
2023-02-12T20:25:27.781Z,102527.31
2023-02-12T20:30:31.280Z,102528.19
2023-02-12T20:35:37.279Z,102516.09
2023-02-12T20:40:40.969Z,102525.63
2023-02-12T20:45:47.542Z,102524.78
2023-02-12T20:51:36.586Z,102522.97
2023-02-12T20:56:44.223Z,102515.25
2023-02-12T21:01:48.114Z,102513.47
2023-02-12T21:06:51.827Z,102524.03
2023-02-12T21:11:59.351Z,102528.34
2023-02-12T21:17:07.687Z,102531.88
2023-02-12T21:22:11.493Z,102531.19
2023-02-12T21:27:24.103Z,102529.44
2023-02-12T21:32:35.142Z,102540.00
2023-02-12T21:37:44.860Z,102533.91
2023-02-12T21:42:56.304Z,102530.53
2023-02-12T21:48:02.545Z,102527.28
2023-02-12T21:53:07.445Z,102522.97
2023-02-12T21:58:13.885Z,102532.66
2023-02-12T22:03:17.740Z,102526.66
2023-02-12T22:08:29.642Z,102526.66
2023-02-12T22:13:37.554Z,102531.16
2023-02-12T22:18:45.861Z,102536.38
2023-02-12T22:23:52.049Z,102534.59
2023-02-12T22:29:05.379Z,102536.28
2023-02-12T22:34:14.509Z,102531.94
2023-02-12T22:39:30.346Z,102535.47
2023-02-12T22:44:39.184Z,102538.22
2023-02-12T22:49:43.907Z,102535.59
2023-02-12T22:54:52.161Z,102539.91
2023-02-12T22:59:57.760Z,102543.44
2023-02-12T23:05:04.308Z,102539.13
2023-02-12T23:10:10.867Z,102538.25
2023-02-12T23:15:19.555Z,102547.03
2023-02-12T23:20:24.174Z,102539.31
2023-02-12T23:25:29.394Z,102542.06
2023-02-12T23:30:37.141Z,102538.59
2023-02-12T23:35:42.264Z,102545.66
2023-02-12T23:40:46.884Z,102544.00
2023-02-12T23:45:52.253Z,102531.81
2023-02-12T23:50:57.379Z,102544.09
2023-02-12T23:56:01.887Z,102538.88
